Time;durP1;ratioP1;P1;durP2;ratioP2;P2;SDS_P1;SDS_P2;PMS_P1;PMS_P2;Temp;Humidity;BMP_temperature;BMP_pressure;BME280_temperature;BME280_humidity;BME280_pressure;Samples;Min_cycle;Max_cycle;Signal;HPM_P1;HPM_P2
2023/06/30 00:00:32;;;;;;;5.45;4.18;;;21.60;99.90;;;;;;2035655;29;20024;-71
2023/06/30 00:01:33;;;;;;;5.53;4.03;;;21.60;99.90;;;;;;2038428;29;20118;-71
2023/06/30 00:02:33;;;;;;;4.90;4.40;;;21.60;99.90;;;;;;2042046;29;20078;-72
2023/06/30 00:03:34;;;;;;;5.57;4.53;;;21.60;99.90;;;;;;2039193;28;20090;-73
2023/06/30 00:04:35;;;;;;;5.20;4.30;;;21.60;99.90;;;;;;2037786;28;20031;-73
2023/06/30 00:05:36;;;;;;;5.05;4.30;;;21.60;99.90;;;;;;2036599;29;20024;-73
2023/06/30 00:06:37;;;;;;;4.50;4.10;;;21.60;99.90;;;;;;2042044;28;20038;-72
2023/06/30 00:07:37;;;;;;;5.55;4.45;;;21.50;99.90;;;;;;2039702;28;20054;-73
2023/06/30 00:08:38;;;;;;;4.40;4.00;;;21.60;99.90;;;;;;2032643;28;20034;-72
2023/06/30 00:09:38;;;;;;;5.53;4.28;;;21.60;99.90;;;;;;2040900;29;20446;-73
2023/06/30 00:10:39;;;;;;;7.38;4.40;;;21.60;99.90;;;;;;2041476;29;20058;-72
2023/06/30 00:11:40;;;;;;;5.07;4.38;;;21.50;99.90;;;;;;2038305;29;20059;-72
2023/06/30 00:12:40;;;;;;;6.25;4.32;;;21.50;99.90;;;;;;2039273;28;20035;-72
2023/06/30 00:13:41;;;;;;;4.60;4.20;;;21.50;99.90;;;;;;2038334;29;20040;-73
2023/06/30 00:14:41;;;;;;;5.30;4.22;;;21.50;99.90;;;;;;2033646;29;20024;-72
2023/06/30 00:15:42;;;;;;;4.55;4.00;;;21.50;99.90;;;;;;2035987;29;20038;-72
2023/06/30 00:16:42;;;;;;;4.60;4.13;;;21.50;99.90;;;;;;2036170;29;20032;-72
2023/06/30 00:17:43;;;;;;;5.20;4.40;;;21.50;99.90;;;;;;2036037;29;20506;-72
2023/06/30 00:18:43;;;;;;;5.05;4.55;;;21.50;99.90;;;;;;2039841;29;20042;-72
2023/06/30 00:19:44;;;;;;;5.40;4.30;;;21.50;99.90;;;;;;2041733;29;20031;-73
2023/06/30 00:20:45;;;;;;;4.90;4.35;;;21.50;99.90;;;;;;2039063;28;20031;-73
2023/06/30 00:21:48;;;;;;;4.80;4.40;;;21.50;99.90;;;;;;2039368;28;20034;-72
2023/06/30 00:22:48;;;;;;;5.68;4.50;;;21.50;99.90;;;;;;2039226;28;20044;-72
2023/06/30 00:23:49;;;;;;;4.68;4.28;;;21.50;99.90;;;;;;2043482;28;20402;-73
2023/06/30 00:24:54;;;;;;;6.43;4.35;;;21.50;99.90;;;;;;2040681;29;20062;-72
2023/06/30 00:25:55;;;;;;;6.22;4.68;;;21.50;99.90;;;;;;2035283;29;20047;-72
2023/06/30 00:26:55;;;;;;;5.38;4.20;;;21.50;99.90;;;;;;2040149;29;20037;-72
2023/06/30 00:27:56;;;;;;;4.90;4.18;;;21.40;99.90;;;;;;2039760;28;20031;-73
2023/06/30 00:29:02;;;;;;;4.90;4.40;;;21.50;99.90;;;;;;2043849;29;20019;-71
2023/06/30 00:30:05;;;;;;;6.70;4.30;;;21.40;99.90;;;;;;2037944;28;20394;-72
2023/06/30 00:31:05;;;;;;;5.20;4.40;;;21.40;99.90;;;;;;2046248;28;20102;-73
2023/06/30 00:32:06;;;;;;;5.70;4.00;;;21.40;99.90;;;;;;2046412;28;20496;-72
2023/06/30 00:33:06;;;;;;;4.72;4.25;;;21.40;99.90;;;;;;2046433;28;20042;-72
2023/06/30 00:34:07;;;;;;;4.72;4.20;;;21.40;99.90;;;;;;2049230;28;20035;-72
2023/06/30 00:35:08;;;;;;;7.03;4.40;;;21.40;99.90;;;;;;2036077;29;20121;-72
2023/06/30 00:36:08;;;;;;;5.60;4.63;;;21.40;99.90;;;;;;2035755;29;20043;-72
2023/06/30 00:37:09;;;;;;;8.65;4.50;;;21.40;99.90;;;;;;2034860;29;20035;-73
2023/06/30 00:38:09;;;;;;;6.07;4.50;;;21.30;99.90;;;;;;2041184;29;20039;-72
2023/06/30 00:39:10;;;;;;;5.53;4.30;;;21.30;99.90;;;;;;2035517;28;20138;-72
2023/06/30 00:40:13;;;;;;;4.90;4.50;;;21.30;99.90;;;;;;2036635;29;20708;-72
2023/06/30 00:41:14;;;;;;;4.75;4.22;;;21.30;99.90;;;;;;2046116;28;20023;-73
2023/06/30 00:42:16;;;;;;;5.28;4.72;;;21.30;99.90;;;;;;2047346;28;20034;-73
2023/06/30 00:43:17;;;;;;;5.78;4.75;;;21.30;99.90;;;;;;2038190;29;20142;-72
2023/06/30 00:44:19;;;;;;;9.00;8.10;;;21.20;99.90;;;;;;2038940;28;20075;-72
2023/06/30 00:45:20;;;;;;;9.25;6.10;;;21.30;99.90;;;;;;2039467;28;20567;-72
2023/06/30 00:46:20;;;;;;;5.07;4.55;;;21.30;99.90;;;;;;2048611;28;20030;-72
2023/06/30 00:47:23;;;;;;;6.38;5.00;;;21.30;99.90;;;;;;2047334;28;20035;-72
2023/06/30 00:48:26;;;;;;;5.43;4.72;;;21.30;99.90;;;;;;2039883;29;20117;-72
2023/06/30 00:49:28;;;;;;;5.63;4.53;;;21.30;99.90;;;;;;2041209;29;20039;-73
2023/06/30 00:50:29;;;;;;;4.60;4.20;;;21.30;99.90;;;;;;2033269;29;20106;-72
2023/06/30 00:51:30;;;;;;;4.80;4.28;;;21.30;99.90;;;;;;2045237;28;20035;-72
2023/06/30 00:52:32;;;;;;;4.47;4.07;;;21.30;99.90;;;;;;2047173;28;20239;-72
2023/06/30 00:53:32;;;;;;;4.97;4.43;;;21.30;99.90;;;;;;2046494;28;20151;-72
2023/06/30 00:54:33;;;;;;;5.60;4.60;;;21.30;99.90;;;;;;2041310;28;20083;-72
2023/06/30 00:55:35;;;;;;;5.38;4.28;;;21.30;99.90;;;;;;2039760;29;20695;-72
2023/06/30 00:56:35;;;;;;;4.70;4.30;;;21.20;99.90;;;;;;2036004;29;20028;-72
2023/06/30 00:57:36;;;;;;;4.80;4.28;;;21.20;99.90;;;;;;2034899;29;20058;-74
2023/06/30 00:58:36;;;;;;;5.15;4.50;;;21.20;99.90;;;;;;2040669;29;20027;-72
2023/06/30 00:59:37;;;;;;;5.57;4.25;;;21.20;99.90;;;;;;2039025;28;20079;-79
2023/06/30 01:00:38;;;;;;;5.88;4.28;;;21.20;99.90;;;;;;2045270;28;20046;-75
2023/06/30 01:01:56;;;;;;;5.55;4.20;;;21.20;99.90;;;;;;2035431;29;20047;-75
2023/06/30 01:03:26;;;;;;;5.22;4.30;;;21.20;99.90;;;;;;2038774;29;20028;-74
2023/06/30 01:04:59;;;;;;;5.43;4.75;;;21.20;99.90;;;;;;2040152;29;20027;-73
2023/06/30 01:06:29;;;;;;;7.50;4.30;;;21.20;99.90;;;;;;2034884;29;20050;-76
2023/06/30 01:07:50;;;;;;;5.25;4.68;;;21.20;99.90;;;;;;2031827;28;20039;-74
2023/06/30 01:09:15;;;;;;;6.82;4.18;;;21.30;99.90;;;;;;2033306;29;20054;-75
2023/06/30 01:10:20;;;;;;;6.38;4.72;;;21.30;99.90;;;;;;2044989;28;20516;-74
2023/06/30 01:11:21;;;;;;;6.07;4.68;;;21.30;99.90;;;;;;2046331;28;20035;-74
2023/06/30 01:12:23;;;;;;;5.30;4.50;;;21.20;99.90;;;;;;2039015;29;20034;-73
2023/06/30 01:13:24;;;;;;;4.82;4.30;;;21.20;99.90;;;;;;2040665;29;20034;-75
2023/06/30 01:14:29;;;;;;;4.80;4.40;;;21.20;99.90;;;;;;2030416;29;20031;-74
2023/06/30 01:15:30;;;;;;;4.93;4.50;;;21.20;99.90;;;;;;2036002;28;20974;-74
2023/06/30 01:16:33;;;;;;;5.93;4.53;;;21.20;99.90;;;;;;2036906;29;20066;-73
2023/06/30 01:17:35;;;;;;;5.05;4.53;;;21.20;99.90;;;;;;2045733;28;20031;-73
2023/06/30 01:18:37;;;;;;;5.00;4.50;;;21.10;99.90;;;;;;2048629;28;20106;-73
2023/06/30 01:19:44;;;;;;;6.75;4.93;;;21.10;99.90;;;;;;2039386;28;20027;-74
2023/06/30 01:20:46;;;;;;;6.05;5.07;;;21.10;99.90;;;;;;2035754;29;20526;-73
2023/06/30 01:21:47;;;;;;;5.78;5.15;;;21.10;99.90;;;;;;2039857;29;20037;-74
2023/06/30 01:22:54;;;;;;;7.72;4.85;;;21.10;99.90;;;;;;2039994;29;20027;-74
2023/06/30 01:24:07;;;;;;;5.50;4.63;;;21.10;99.90;;;;;;2039917;29;20035;-74
2023/06/30 01:25:11;;;;;;;5.32;4.57;;;21.10;99.90;;;;;;2039779;29;20074;-75
2023/06/30 01:26:12;;;;;;;5.75;4.80;;;21.10;99.90;;;;;;2036378;29;20078;-74
2023/06/30 01:27:14;;;;;;;6.82;4.88;;;21.10;99.90;;;;;;2039176;28;20041;-74
2023/06/30 01:28:16;;;;;;;5.32;4.70;;;21.10;99.90;;;;;;2036275;29;20023;-74
2023/06/30 01:29:17;;;;;;;5.38;4.72;;;21.10;99.90;;;;;;2032289;29;20047;-73
2023/06/30 01:30:18;;;;;;;5.28;4.78;;;21.20;99.90;;;;;;2039091;28;20087;-75
2023/06/30 01:31:20;;;;;;;7.20;4.75;;;21.10;99.90;;;;;;2045599;28;20062;-74
2023/06/30 01:32:21;;;;;;;5.72;4.97;;;21.10;99.90;;;;;;2038330;28;20039;-75
2023/06/30 01:33:22;;;;;;;5.55;4.70;;;21.10;99.90;;;;;;2038281;29;20079;-75
2023/06/30 01:34:24;;;;;;;5.05;4.45;;;21.10;99.90;;;;;;2032528;29;20071;-75
2023/06/30 01:35:26;;;;;;;5.57;4.97;;;21.10;99.90;;;;;;2038632;28;20027;-74
2023/06/30 01:36:26;;;;;;;5.63;5.00;;;21.10;99.90;;;;;;2035064;29;20418;-74
2023/06/30 01:37:27;;;;;;;5.22;4.72;;;21.10;99.90;;;;;;2027555;29;20020;-75
2023/06/30 01:38:28;;;;;;;5.25;4.72;;;21.10;99.90;;;;;;2031358;29;20036;-74
2023/06/30 01:39:28;;;;;;;6.20;4.75;;;21.10;99.90;;;;;;2040638;29;20034;-75
2023/06/30 01:40:29;;;;;;;5.97;4.93;;;21.10;99.90;;;;;;2038007;29;20793;-75
2023/06/30 01:41:30;;;;;;;5.28;4.78;;;21.10;99.90;;;;;;2038623;28;20833;-74
2023/06/30 01:42:33;;;;;;;5.70;4.65;;;21.10;99.90;;;;;;2038417;28;20035;-74
2023/06/30 01:43:35;;;;;;;5.10;4.47;;;21.10;99.90;;;;;;2039039;28;20023;-74
2023/06/30 01:44:36;;;;;;;6.15;4.50;;;21.10;99.90;;;;;;2041506;28;20027;-74
2023/06/30 01:45:36;;;;;;;5.20;4.60;;;21.10;99.90;;;;;;2042912;28;20042;-73
2023/06/30 01:46:37;;;;;;;4.97;4.47;;;21.00;99.90;;;;;;2035808;28;20020;-75
2023/06/30 01:47:38;;;;;;;5.75;4.88;;;21.00;99.90;;;;;;2038985;28;20031;-74
2023/06/30 01:48:40;;;;;;;6.10;4.68;;;21.00;99.90;;;;;;2047984;28;20034;-75
2023/06/30 01:49:42;;;;;;;5.18;4.55;;;21.00;99.90;;;;;;2038256;28;20036;-75
2023/06/30 01:50:45;;;;;;;5.18;4.68;;;21.00;99.90;;;;;;2038853;28;20684;-74
2023/06/30 01:51:45;;;;;;;6.50;4.60;;;21.00;99.90;;;;;;2037982;29;20027;-75
2023/06/30 01:52:47;;;;;;;4.70;4.30;;;21.00;99.90;;;;;;2037546;28;20031;-74
2023/06/30 01:53:48;;;;;;;6.45;4.50;;;21.00;99.90;;;;;;2045860;28;20166;-74
2023/06/30 01:54:48;;;;;;;6.03;4.50;;;21.00;99.90;;;;;;2048830;28;20031;-74
2023/06/30 01:55:49;;;;;;;6.47;4.88;;;21.00;99.90;;;;;;2039263;29;20071;-73
2023/06/30 01:56:50;;;;;;;4.93;4.43;;;21.00;99.90;;;;;;2031034;29;20032;-74
2023/06/30 01:57:50;;;;;;;5.15;4.65;;;21.00;99.90;;;;;;2025081;29;20527;-74
2023/06/30 01:58:51;;;;;;;4.95;4.28;;;21.00;99.90;;;;;;2027003;29;20059;-74
2023/06/30 01:59:51;;;;;;;4.95;4.40;;;21.00;99.90;;;;;;2036326;29;20061;-74
2023/06/30 02:00:52;;;;;;;5.10;4.60;;;21.00;99.90;;;;;;2038291;29;20038;-75
2023/06/30 02:01:52;;;;;;;4.88;4.43;;;20.90;99.90;;;;;;2038630;28;20038;-75
2023/06/30 02:02:53;;;;;;;6.35;4.60;;;21.00;99.90;;;;;;2041821;28;20122;-75
2023/06/30 02:03:53;;;;;;;5.72;4.70;;;21.00;99.90;;;;;;2042882;28;20552;-74
2023/06/30 02:04:54;;;;;;;6.47;4.63;;;21.00;99.90;;;;;;2036424;28;20031;-74
2023/06/30 02:05:54;;;;;;;7.70;4.72;;;21.00;99.90;;;;;;2040472;29;20023;-74
2023/06/30 02:06:55;;;;;;;6.88;4.50;;;21.00;99.90;;;;;;2037801;29;20019;-74
2023/06/30 02:07:56;;;;;;;5.78;4.90;;;21.00;99.90;;;;;;2037159;29;20047;-74
2023/06/30 02:08:56;;;;;;;6.10;4.65;;;21.00;99.90;;;;;;2031528;29;20769;-75
2023/06/30 02:09:57;;;;;;;6.10;4.95;;;21.00;99.90;;;;;;2034931;29;20042;-75
2023/06/30 02:10:57;;;;;;;6.25;4.85;;;21.00;99.90;;;;;;2029967;29;20032;-74
2023/06/30 02:11:58;;;;;;;8.90;5.00;;;21.00;99.90;;;;;;2028591;29;20031;-75
2023/06/30 02:13:00;;;;;;;7.03;5.20;;;21.00;99.90;;;;;;2038237;29;20078;-74
2023/06/30 02:14:00;;;;;;;5.78;4.80;;;21.00;99.90;;;;;;2039239;29;20479;-74
2023/06/30 02:15:02;;;;;;;6.78;4.97;;;21.00;99.90;;;;;;2039094;28;20525;-75
2023/06/30 02:16:03;;;;;;;5.90;5.18;;;21.00;99.90;;;;;;2038690;28;20055;-74
2023/06/30 02:17:05;;;;;;;5.55;5.05;;;21.00;99.90;;;;;;2040357;29;20035;-75
2023/06/30 02:18:05;;;;;;;5.68;4.68;;;21.00;99.90;;;;;;2038355;28;20081;-74
2023/06/30 02:19:06;;;;;;;7.35;4.97;;;21.00;99.90;;;;;;2045475;28;20039;-75
2023/06/30 02:20:13;;;;;;;5.35;4.65;;;21.00;99.90;;;;;;2046187;28;20031;-75
2023/06/30 02:21:14;;;;;;;6.43;4.93;;;21.00;99.90;;;;;;2042026;28;20502;-75
2023/06/30 02:22:14;;;;;;;5.40;4.78;;;20.90;99.90;;;;;;2037144;29;20119;-74
2023/06/30 02:23:15;;;;;;;5.13;4.63;;;20.90;99.90;;;;;;2047092;28;20028;-75
2023/06/30 02:24:15;;;;;;;5.63;4.60;;;20.90;99.90;;;;;;2046877;28;20026;-75
2023/06/30 02:25:16;;;;;;;6.07;4.55;;;20.90;99.90;;;;;;2035221;29;20036;-74
2023/06/30 02:26:18;;;;;;;8.48;4.80;;;20.90;99.90;;;;;;2040883;29;20482;-74
2023/06/30 02:27:19;;;;;;;7.07;5.05;;;20.90;99.90;;;;;;2038319;28;20059;-74
2023/06/30 02:28:19;;;;;;;7.90;5.18;;;20.90;99.90;;;;;;2037404;28;20028;-74
2023/06/30 02:29:20;;;;;;;6.78;4.82;;;20.80;99.90;;;;;;2042911;28;20035;-74
2023/06/30 02:30:21;;;;;;;7.15;4.78;;;20.90;99.90;;;;;;2045796;28;20554;-75
2023/06/30 02:31:21;;;;;;;6.25;4.65;;;20.80;99.90;;;;;;2037080;29;20101;-75
2023/06/30 02:32:22;;;;;;;8.50;4.80;;;20.80;99.90;;;;;;2039262;29;20028;-75
2023/06/30 02:33:23;;;;;;;8.25;5.22;;;20.80;99.90;;;;;;2035294;29;20032;-75
2023/06/30 02:34:23;;;;;;;7.22;5.13;;;20.80;99.90;;;;;;2039194;29;20728;-75
2023/06/30 02:35:24;;;;;;;8.00;5.07;;;20.80;99.90;;;;;;2039611;29;20097;-74
2023/06/30 02:36:27;;;;;;;7.68;5.28;;;20.80;99.90;;;;;;2035205;29;20022;-75
2023/06/30 02:37:28;;;;;;;6.45;5.20;;;20.80;99.90;;;;;;2040974;29;20887;-75
2023/06/30 02:38:30;;;;;;;6.05;5.43;;;20.80;99.90;;;;;;2038320;28;20043;-75
2023/06/30 02:39:31;;;;;;;6.60;5.40;;;20.80;99.90;;;;;;2036693;28;20065;-75
2023/06/30 02:40:32;;;;;;;11.10;5.55;;;20.80;99.90;;;;;;2035415;29;20031;-74
2023/06/30 02:41:33;;;;;;;7.57;5.40;;;20.80;99.90;;;;;;2040234;29;20428;-75
2023/06/30 02:42:34;;;;;;;8.00;5.75;;;20.80;99.90;;;;;;2026743;29;20542;-75
2023/06/30 02:43:34;;;;;;;8.52;5.80;;;20.80;99.90;;;;;;2034602;29;20024;-74
2023/06/30 02:44:35;;;;;;;6.95;5.80;;;20.80;99.90;;;;;;2043628;28;20019;-74
2023/06/30 02:45:36;;;;;;;7.78;5.80;;;20.80;99.90;;;;;;2038874;29;20035;-74
2023/06/30 02:46:37;;;;;;;6.97;5.25;;;20.80;99.90;;;;;;2039846;29;20130;-75
2023/06/30 02:47:38;;;;;;;8.07;6.10;;;20.80;99.90;;;;;;2040814;28;20028;-75
2023/06/30 02:48:39;;;;;;;7.90;5.80;;;20.70;99.90;;;;;;2043284;28;20122;-74
2023/06/30 02:49:40;;;;;;;7.97;6.05;;;20.70;99.90;;;;;;2034403;29;20016;-74
2023/06/30 02:50:40;;;;;;;6.82;5.80;;;20.70;99.90;;;;;;2036157;29;20032;-74
2023/06/30 02:51:41;;;;;;;7.82;5.80;;;20.70;99.90;;;;;;2038464;28;20032;-75
2023/06/30 02:52:42;;;;;;;7.28;5.97;;;20.70;99.90;;;;;;2026811;29;20036;-74
2023/06/30 02:53:43;;;;;;;8.05;5.57;;;20.70;99.90;;;;;;2038824;29;20079;-74
2023/06/30 02:54:44;;;;;;;6.75;5.78;;;20.70;99.90;;;;;;2035127;29;20115;-74
2023/06/30 02:55:45;;;;;;;7.13;5.70;;;20.80;99.90;;;;;;2039126;29;20064;-74
2023/06/30 02:56:48;;;;;;;6.93;5.88;;;20.70;99.90;;;;;;2027461;29;20443;-75
2023/06/30 02:57:50;;;;;;;7.88;5.82;;;20.70;99.90;;;;;;2026398;29;20074;-74
2023/06/30 02:58:51;;;;;;;8.15;5.78;;;20.70;99.90;;;;;;2034416;29;20027;-74
2023/06/30 02:59:51;;;;;;;7.72;5.60;;;20.70;99.90;;;;;;2035260;29;20565;-74
2023/06/30 03:00:55;;;;;;;6.80;6.05;;;20.70;99.90;;;;;;2042201;28;20180;-75
2023/06/30 03:01:56;;;;;;;7.00;6.10;;;20.70;99.90;;;;;;2036125;29;20028;-75
2023/06/30 03:02:56;;;;;;;9.13;6.28;;;20.70;99.90;;;;;;2029154;29;20082;-75
2023/06/30 03:03:58;;;;;;;9.15;6.00;;;20.70;99.90;;;;;;2039723;29;20047;-75
2023/06/30 03:05:01;;;;;;;9.63;6.60;;;20.70;99.90;;;;;;2038230;29;20398;-75
2023/06/30 03:06:04;;;;;;;9.05;6.68;;;20.70;99.90;;;;;;2041821;28;20034;-75
2023/06/30 03:07:08;;;;;;;11.23;6.63;;;20.70;99.90;;;;;;2043456;28;20483;-74
2023/06/30 03:08:13;;;;;;;8.07;6.20;;;20.70;99.90;;;;;;2041899;28;20039;-75
2023/06/30 03:09:15;;;;;;;14.52;6.53;;;20.70;99.90;;;;;;2042518;28;20027;-74
2023/06/30 03:10:15;;;;;;;10.40;6.50;;;20.60;99.90;;;;;;2047186;28;20027;-74
2023/06/30 03:11:16;;;;;;;9.80;6.63;;;20.60;99.90;;;;;;2039607;28;20035;-74
2023/06/30 03:12:16;;;;;;;10.38;6.68;;;20.60;99.90;;;;;;2047050;28;20027;-74
2023/06/30 03:13:17;;;;;;;10.23;7.15;;;20.60;99.90;;;;;;2042102;28;20038;-75
2023/06/30 03:14:18;;;;;;;11.82;7.15;;;20.60;99.90;;;;;;2043419;28;20031;-75
2023/06/30 03:15:19;;;;;;;9.32;7.05;;;20.60;99.90;;;;;;2038254;29;20194;-74
2023/06/30 03:16:19;;;;;;;11.13;7.10;;;20.60;99.90;;;;;;2034821;29;20881;-75
2023/06/30 03:17:21;;;;;;;10.27;7.35;;;20.60;99.90;;;;;;2040647;29;20114;-74
2023/06/30 03:18:21;;;;;;;10.65;6.95;;;20.50;99.90;;;;;;2037709;29;20873;-74
2023/06/30 03:19:22;;;;;;;8.52;6.45;;;20.60;99.90;;;;;;2039305;29;20022;-75
2023/06/30 03:20:23;;;;;;;8.98;6.82;;;20.60;99.90;;;;;;2038946;28;20549;-76
2023/06/30 03:21:24;;;;;;;8.35;6.35;;;20.60;99.90;;;;;;2039236;28;20036;-75
2023/06/30 03:22:25;;;;;;;9.63;6.85;;;20.50;99.90;;;;;;2049234;28;20081;-75
2023/06/30 03:23:27;;;;;;;9.57;6.80;;;20.60;99.90;;;;;;2035432;29;20530;-75
2023/06/30 03:24:27;;;;;;;9.18;6.90;;;20.50;99.90;;;;;;2036777;29;20099;-74
2023/06/30 03:25:28;;;;;;;11.55;7.00;;;20.60;99.90;;;;;;2043781;28;20118;-75
2023/06/30 03:26:29;;;;;;;12.43;7.32;;;20.60;99.90;;;;;;2040982;29;20023;-74
2023/06/30 03:27:29;;;;;;;10.07;6.22;;;20.50;99.90;;;;;;2036697;28;20028;-75
2023/06/30 03:28:30;;;;;;;7.53;6.40;;;20.50;99.90;;;;;;2037901;29;20059;-74
2023/06/30 03:29:31;;;;;;;8.50;6.50;;;20.60;99.90;;;;;;2028341;29;20032;-74
2023/06/30 03:30:31;;;;;;;9.80;6.68;;;20.60;99.90;;;;;;2041645;28;20031;-74
2023/06/30 03:31:32;;;;;;;8.38;6.35;;;20.60;99.90;;;;;;2032253;29;20050;-74
2023/06/30 03:32:32;;;;;;;7.75;6.43;;;20.60;99.90;;;;;;2020979;29;20032;-74
2023/06/30 03:33:33;;;;;;;9.05;6.75;;;20.60;99.90;;;;;;2040105;28;20054;-73
2023/06/30 03:34:34;;;;;;;8.20;6.93;;;20.60;99.90;;;;;;2041625;29;20439;-74
2023/06/30 03:35:34;;;;;;;13.32;6.78;;;20.60;99.90;;;;;;2046386;28;20058;-74
2023/06/30 03:36:35;;;;;;;9.73;6.55;;;20.50;99.90;;;;;;2051348;28;20065;-74
2023/06/30 03:37:35;;;;;;;7.78;6.30;;;20.50;99.90;;;;;;2047206;28;20031;-74
2023/06/30 03:38:36;;;;;;;8.25;6.40;;;20.50;99.90;;;;;;2047193;28;20043;-74
2023/06/30 03:39:37;;;;;;;8.07;6.30;;;20.50;99.90;;;;;;2049504;28;20035;-75
2023/06/30 03:40:38;;;;;;;6.80;6.10;;;20.50;99.90;;;;;;2040284;28;20058;-76
2023/06/30 03:41:38;;;;;;;9.32;6.38;;;20.50;99.90;;;;;;2039905;28;20049;-76
2023/06/30 03:42:40;;;;;;;8.43;6.03;;;20.60;99.90;;;;;;2038494;29;20065;-75
2023/06/30 03:43:41;;;;;;;8.80;6.20;;;20.50;99.90;;;;;;2049229;28;20027;-75
2023/06/30 03:44:42;;;;;;;7.32;6.15;;;20.50;99.90;;;;;;2046267;28;20130;-75
2023/06/30 03:45:42;;;;;;;7.57;6.50;;;20.50;99.90;;;;;;2037756;29;20063;-75
2023/06/30 03:46:43;;;;;;;8.75;6.00;;;20.50;99.90;;;;;;2039379;28;20032;-76
2023/06/30 03:47:44;;;;;;;6.93;6.22;;;20.50;99.90;;;;;;2038939;29;20066;-75
2023/06/30 03:48:44;;;;;;;7.05;5.63;;;20.50;99.90;;;;;;2033445;29;20028;-74
2023/06/30 03:49:45;;;;;;;10.40;6.50;;;20.60;99.90;;;;;;2032034;29;20040;-75
2023/06/30 03:50:47;;;;;;;7.95;6.10;;;20.50;99.90;;;;;;2040144;28;20055;-74
2023/06/30 03:51:49;;;;;;;7.50;6.10;;;20.60;99.90;;;;;;2040800;29;20252;-75
2023/06/30 03:52:50;;;;;;;6.70;6.00;;;20.50;99.90;;;;;;2041760;29;20039;-74
2023/06/30 03:53:52;;;;;;;9.18;6.38;;;20.60;99.90;;;;;;2039472;29;20503;-74
2023/06/30 03:54:52;;;;;;;7.05;5.82;;;20.50;99.90;;;;;;2036731;28;20036;-75
2023/06/30 03:55:53;;;;;;;6.55;5.95;;;20.60;99.90;;;;;;2046896;28;20106;-75
2023/06/30 03:56:53;;;;;;;7.60;6.28;;;20.60;99.90;;;;;;2046877;28;20127;-74
2023/06/30 03:57:54;;;;;;;6.18;5.57;;;20.60;99.90;;;;;;2047361;28;20036;-74
2023/06/30 03:58:54;;;;;;;7.45;5.50;;;20.60;99.90;;;;;;2041342;29;20495;-74
2023/06/30 03:59:55;;;;;;;6.95;5.65;;;20.60;99.90;;;;;;2032031;29;20050;-74
2023/06/30 04:00:56;;;;;;;7.00;6.30;;;20.60;99.90;;;;;;2039982;28;20517;-74
2023/06/30 04:01:57;;;;;;;8.20;6.07;;;20.60;99.90;;;;;;2040339;29;20078;-75
2023/06/30 04:02:57;;;;;;;9.35;6.13;;;20.60;99.90;;;;;;2037200;29;20475;-75
2023/06/30 04:03:58;;;;;;;6.88;5.78;;;20.60;99.90;;;;;;2038400;29;20050;-76
2023/06/30 04:04:58;;;;;;;6.20;5.60;;;20.60;99.90;;;;;;2044655;28;20054;-75
2023/06/30 04:05:59;;;;;;;8.45;6.07;;;20.50;99.90;;;;;;2046708;28;20031;-75
2023/06/30 04:07:00;;;;;;;6.18;5.57;;;20.60;99.90;;;;;;2041111;29;20036;-74
2023/06/30 04:08:01;;;;;;;7.22;5.47;;;20.60;99.90;;;;;;2031174;29;20567;-75
2023/06/30 04:09:02;;;;;;;7.22;5.68;;;20.60;99.90;;;;;;2030953;29;20126;-75
2023/06/30 04:10:03;;;;;;;6.35;5.53;;;20.60;99.90;;;;;;2037189;29;20521;-76
2023/06/30 04:11:04;;;;;;;6.95;5.78;;;20.60;99.90;;;;;;2028691;29;20126;-75
2023/06/30 04:12:05;;;;;;;5.95;5.35;;;20.60;99.90;;;;;;2040991;29;20070;-75
2023/06/30 04:13:06;;;;;;;8.63;5.35;;;20.60;99.90;;;;;;2046340;28;20722;-75
2023/06/30 04:14:07;;;;;;;6.47;5.60;;;20.60;99.90;;;;;;2046907;28;20019;-75
2023/06/30 04:15:10;;;;;;;11.45;8.00;;;20.60;99.90;;;;;;2039774;28;20031;-75
2023/06/30 04:16:10;;;;;;;7.88;6.32;;;20.60;99.90;;;;;;2036357;29;20035;-74
2023/06/30 04:17:11;;;;;;;8.77;6.20;;;20.60;99.90;;;;;;2041345;28;20047;-76
2023/06/30 04:18:11;;;;;;;7.25;6.20;;;20.60;99.90;;;;;;2035646;28;20050;-76
2023/06/30 04:19:12;;;;;;;6.13;5.53;;;20.60;99.90;;;;;;2039860;29;20833;-75
2023/06/30 04:20:15;;;;;;;6.72;6.03;;;20.60;99.90;;;;;;2041556;29;20023;-75
2023/06/30 04:21:17;;;;;;;7.47;5.55;;;20.60;99.90;;;;;;2033708;29;20039;-75
2023/06/30 04:22:17;;;;;;;7.60;5.88;;;20.60;99.90;;;;;;2038494;29;20035;-75
2023/06/30 04:23:18;;;;;;;6.32;5.65;;;20.60;99.90;;;;;;2037887;29;20054;-76
2023/06/30 04:24:19;;;;;;;7.32;6.07;;;20.60;99.90;;;;;;2036687;29;20071;-75
2023/06/30 04:25:20;;;;;;;6.05;5.35;;;20.60;99.90;;;;;;2039346;28;20495;-75
2023/06/30 04:26:20;;;;;;;6.38;5.68;;;20.60;99.90;;;;;;2034188;29;20028;-76
2023/06/30 04:27:21;;;;;;;8.43;6.10;;;20.60;99.90;;;;;;2047637;28;20756;-76
2023/06/30 04:28:21;;;;;;;9.45;6.10;;;20.60;99.90;;;;;;2044882;28;20051;-76
2023/06/30 04:29:22;;;;;;;8.00;5.53;;;20.60;99.90;;;;;;2040686;29;20078;-75
2023/06/30 04:30:22;;;;;;;11.85;7.20;;;20.60;99.90;;;;;;2041575;29;20039;-74
2023/06/30 04:31:23;;;;;;;9.90;7.97;;;20.70;99.90;;;;;;2036135;29;20448;-73
2023/06/30 04:32:24;;;;;;;15.02;8.60;;;20.60;99.90;;;;;;2037461;29;20043;-76
2023/06/30 04:33:24;;;;;;;13.30;8.50;;;20.60;99.90;;;;;;2039869;28;20031;-75
2023/06/30 04:34:25;;;;;;;14.40;9.10;;;20.60;99.90;;;;;;2042171;28;20024;-74
2023/06/30 04:35:26;;;;;;;11.07;8.95;;;20.60;99.90;;;;;;2040653;28;20510;-75
2023/06/30 04:36:29;;;;;;;12.60;9.18;;;20.60;99.90;;;;;;2035785;29;20042;-75
2023/06/30 04:37:29;;;;;;;14.55;8.70;;;20.60;99.90;;;;;;2035628;29;20147;-75
2023/06/30 04:38:30;;;;;;;13.30;9.38;;;20.60;99.90;;;;;;2044620;28;20426;-73
2023/06/30 04:39:31;;;;;;;16.25;10.70;;;20.60;99.90;;;;;;2048085;28;20023;-74
2023/06/30 04:40:31;;;;;;;15.05;10.55;;;20.70;99.90;;;;;;2040686;29;20199;-74
2023/06/30 04:41:32;;;;;;;15.00;10.93;;;20.70;99.90;;;;;;2039114;28;20087;-75
2023/06/30 04:42:32;;;;;;;16.05;10.38;;;20.60;99.90;;;;;;2038002;28;20035;-73
2023/06/30 04:43:33;;;;;;;15.02;10.30;;;20.60;99.90;;;;;;2037304;29;20036;-74
2023/06/30 04:44:33;;;;;;;16.35;11.27;;;20.70;99.90;;;;;;2039300;28;20043;-72
2023/06/30 04:45:34;;;;;;;13.35;9.98;;;20.60;99.90;;;;;;2036220;29;20177;-73
2023/06/30 04:46:34;;;;;;;17.23;9.00;;;20.60;99.90;;;;;;2040457;29;20126;-73
2023/06/30 04:47:35;;;;;;;11.73;9.07;;;20.60;99.90;;;;;;2039735;28;20027;-76
2023/06/30 04:48:35;;;;;;;13.52;9.38;;;20.70;99.90;;;;;;2040476;29;20566;-76
2023/06/30 04:49:36;;;;;;;12.38;8.25;;;20.70;99.90;;;;;;2039386;28;20031;-76
2023/06/30 04:50:36;;;;;;;10.23;8.50;;;20.70;99.90;;;;;;2046366;28;20015;-76
2023/06/30 04:51:37;;;;;;;12.10;8.18;;;20.70;99.90;;;;;;2050937;28;20035;-75
2023/06/30 04:52:38;;;;;;;9.63;8.00;;;20.70;99.90;;;;;;2049390;28;20093;-77
2023/06/30 04:53:40;;;;;;;8.93;7.90;;;20.80;99.90;;;;;;2039594;29;20027;-77
2023/06/30 04:54:41;;;;;;;11.15;7.85;;;20.70;99.90;;;;;;2039870;29;20043;-75
2023/06/30 04:55:41;;;;;;;8.40;7.53;;;20.80;99.90;;;;;;2039786;28;20031;-77
2023/06/30 04:56:42;;;;;;;8.85;7.55;;;20.80;99.90;;;;;;2040859;29;20732;-75
2023/06/30 04:57:42;;;;;;;11.27;7.55;;;20.90;99.90;;;;;;2038974;29;20043;-76
2023/06/30 04:58:43;;;;;;;8.35;7.47;;;20.90;99.90;;;;;;2039092;28;20134;-76
2023/06/30 04:59:43;;;;;;;8.60;6.90;;;20.90;99.90;;;;;;2039056;28;20034;-76
2023/06/30 05:00:44;;;;;;;7.43;6.53;;;20.90;99.90;;;;;;2041422;28;20581;-76
2023/06/30 05:01:45;;;;;;;11.93;6.50;;;20.90;99.90;;;;;;2048152;28;20126;-76
2023/06/30 05:02:45;;;;;;;11.57;6.63;;;20.90;99.90;;;;;;2047099;28;20039;-76
2023/06/30 05:03:46;;;;;;;10.98;6.40;;;21.00;99.90;;;;;;2039067;29;20032;-76
2023/06/30 05:04:49;;;;;;;9.85;6.70;;;21.00;99.90;;;;;;2040987;29;20031;-76
2023/06/30 05:05:49;;;;;;;8.68;6.55;;;21.00;99.90;;;;;;2039959;29;20087;-76
2023/06/30 05:06:50;;;;;;;8.02;6.15;;;21.00;99.90;;;;;;2048916;28;20035;-76
2023/06/30 05:07:50;;;;;;;10.43;6.68;;;21.00;99.90;;;;;;2038736;28;20031;-77
2023/06/30 05:08:51;;;;;;;7.50;6.53;;;21.10;99.90;;;;;;2034563;29;20074;-76
2023/06/30 05:09:51;;;;;;;8.35;6.60;;;21.10;99.90;;;;;;2039563;29;20098;-76
2023/06/30 05:10:52;;;;;;;9.93;6.45;;;21.00;99.90;;;;;;2042731;28;20712;-76
2023/06/30 05:11:53;;;;;;;11.57;7.03;;;21.10;99.90;;;;;;2036288;29;20551;-76
2023/06/30 05:12:53;;;;;;;8.60;6.25;;;21.10;99.90;;;;;;2039040;28;20469;-76
2023/06/30 05:13:54;;;;;;;11.88;6.85;;;21.10;99.90;;;;;;2040475;29;20137;-75
2023/06/30 05:14:54;;;;;;;9.25;6.80;;;21.10;99.90;;;;;;2048681;28;20126;-75
2023/06/30 05:15:55;;;;;;;9.63;6.63;;;21.10;99.90;;;;;;2048502;28;20039;-75
2023/06/30 05:16:55;;;;;;;12.63;6.85;;;21.10;99.90;;;;;;2041424;29;20086;-75
2023/06/30 05:17:56;;;;;;;8.15;6.50;;;21.10;99.90;;;;;;2038876;28;20074;-75
2023/06/30 05:18:56;;;;;;;10.82;6.95;;;21.10;99.90;;;;;;2038258;29;20031;-75
2023/06/30 05:19:57;;;;;;;8.65;6.18;;;21.10;99.90;;;;;;2038487;29;20016;-77